Jim Hamilton L.B. Owens Airport
KCUB : now visible

Airfield :











YOU CAN JOIN US ON...

 
LOGIN :

Register | Disclaimer

   EN    FR    IT 

 









Legend :    VFR   Marginal VFR   IFR   Intensive IFR   Very Intensive IFR
Visi :
Ceiling :
>= 8 km
>= 3000ft
5 to 8 km
1000 to 3000 ft
1500m to 5 km
500 to 1000 ft
800 to 1500m
200 to 500 ft
< 800m
< 200 ft
Symbols :   Thunderstorms  Fog  Heavy snow  Heavy precipitations  Wind > 20 kt






- Airport Elevation : 193 ft


KCUB - Jim Hamilton L.B. Owens

CURRENT METAR :
  • 091353Z AUTO VRB03KT 10SM BKN016 OVC024 27/23 A2993 RMK AO2 SLP132 T02670228

EXPIRED METARs :
  • 091336Z AUTO VRB03KT 10SM BKN014 BKN021 OVC050 27/23 A2993 RMK AO2 T02720228
  • 091321Z AUTO 01005KT 10SM SCT014 BKN018 OVC050 26/23 A2993 RMK AO2 T02610228
  • 091253Z AUTO 00000KT 10SM OVC012 26/23 A2992 RMK AO2 SLP130 T02560233
  • 091153Z AUTO 00000KT 6SM BR OVC012 24/23 A2992 RMK AO2 RAB16E27 SLP127 P0001 60001 70005 T02440233 10250 20239 51019
  • 091135Z AUTO 00000KT 4SM BR BKN012 BKN017 OVC042 24/23 A2991 RMK AO2 RAB16E27 P0001 T02440233
  • 091124Z AUTO 00000KT 3SM -RA BR FEW013 BKN019 OVC042 24/23 A2990 RMK AO2 RAB16 P0001 T02440233

TAF KCUB
Valid from the 09 at 12:00 until the 10 at 12:00 UTC


091133Z 0912/1012 00000KT P6SM BKN012 OVC035
TEMPO 0912/0915 2SM -RA BR SCT012 OVC035
FM091500 01004KT P6SM SCT035
FM100000 00000KT P6SM SCT005 BKN250
KZJX FIR / North America



MET'MAP, your aeronautical weather chart ! - Copyright ORBIFLY December 2007 - Disclaimer

ORBIFLY MET'MAP TEAM :

Programming & Development : Alexandra Zaïnal
Concept & original design : Baudouin d'Aumeries
Assistance for programming : Marc-Olivier Méhu
Technical & hardware support : Manuel Goepfert

Contact : metmap@orbifly.com




SOURCES & CREDITS :

   NOAA       Earth
Advisory